JBU3548 KBOS-KFLL
Flight info
| Callsign | JBU3548 |
|---|---|
| Flight time | N/A |
| Altitude | 32000 |
| Route | SSOXS7 SSOXS Q167 RIFLE HEADI Q97 TBONN/N0467F340 Q97 KALDA Q161 CHIEZ Y291 MAJIK CUUDA3 |
| Aircraft | A321/M-SDE3FGHIRWY/LB1 |
Departure
| Time | 2026-05-07 19:09 |
|---|---|
| Airport | Boston Logan International Airport (KBOS) |
Arrival
| Time | N/A |
|---|---|
| Airport | Fort Lauderdale Hollywood International Airport (KFLL) |
| Time | Latitude | Longitude | Altitude | Speed | Heading |
|---|---|---|---|---|---|
| 2026-05-07 18:38 | 42.36732 | -71.01483 | 26 ft | 0 kts | 335° |
| 2026-05-07 18:58 | 42.36716 | -71.01473 | 30 ft | 4 kts | 330° |
| 2026-05-07 18:58 | 42.36693 | -71.01454 | 28 ft | 4 kts | 339° |
| 2026-05-07 18:58 | 42.36685 | -71.01441 | 29 ft | 4 kts | 69° |
| 2026-05-07 18:58 | 42.36685 | -71.01435 | 30 ft | 0 kts | 80° |
| 2026-05-07 19:01 | 42.36686 | -71.01433 | 29 ft | 1 kts | 80° |
| 2026-05-07 19:01 | 42.36688 | -71.01413 | 25 ft | 6 kts | 79° |
| 2026-05-07 19:01 | 42.36699 | -71.01343 | 26 ft | 8 kts | 79° |
| 2026-05-07 19:02 | 42.36691 | -71.01271 | 27 ft | 8 kts | 128° |
| 2026-05-07 19:02 | 42.36646 | -71.01268 | 27 ft | 7 kts | 194° |
| 2026-05-07 19:02 | 42.36598 | -71.01287 | 25 ft | 7 kts | 200° |
| 2026-05-07 19:02 | 42.36549 | -71.01314 | 28 ft | 8 kts | 204° |
| 2026-05-07 19:03 | 42.36498 | -71.01346 | 25 ft | 8 kts | 205° |
| 2026-05-07 19:03 | 42.36433 | -71.01387 | 27 ft | 12 kts | 205° |
| 2026-05-07 19:03 | 42.36369 | -71.01381 | 25 ft | 9 kts | 115° |
| 2026-05-07 19:03 | 42.36336 | -71.01309 | 28 ft | 9 kts | 125° |
| 2026-05-07 19:04 | 42.36299 | -71.01236 | 28 ft | 10 kts | 121° |
| 2026-05-07 19:04 | 42.36264 | -71.01157 | 27 ft | 10 kts | 120° |
| 2026-05-07 19:04 | 42.36233 | -71.01070 | 28 ft | 10 kts | 113° |
| 2026-05-07 19:04 | 42.36202 | -71.00974 | 26 ft | 14 kts | 113° |
| 2026-05-07 19:05 | 42.36158 | -71.00843 | 28 ft | 16 kts | 114° |
| 2026-05-07 19:05 | 42.36117 | -71.00709 | 30 ft | 15 kts | 103° |
| 2026-05-07 19:05 | 42.36083 | -71.00576 | 27 ft | 15 kts | 108° |
| 2026-05-07 19:05 | 42.36049 | -71.00437 | 25 ft | 16 kts | 108° |
| 2026-05-07 19:06 | 42.36014 | -71.00298 | 28 ft | 16 kts | 108° |
| 2026-05-07 19:06 | 42.35914 | -71.00026 | 28 ft | 19 kts | 134° |
| 2026-05-07 19:06 | 42.35820 | -70.99895 | 26 ft | 19 kts | 134° |
| 2026-05-07 19:07 | 42.35724 | -70.99767 | 26 ft | 19 kts | 137° |
| 2026-05-07 19:07 | 42.35625 | -70.99645 | 27 ft | 19 kts | 136° |
| 2026-05-07 19:07 | 42.35531 | -70.99517 | 26 ft | 19 kts | 133° |
| 2026-05-07 19:07 | 42.35489 | -70.99391 | 26 ft | 10 kts | 59° |
| 2026-05-07 19:08 | 42.35494 | -70.99380 | 30 ft | 1 kts | 66° |
| 2026-05-07 19:08 | 42.35513 | -70.99294 | 25 ft | 14 kts | 60° |
| 2026-05-07 19:08 | 42.35561 | -70.99296 | 26 ft | 6 kts | 311° |
| 2026-05-07 19:08 | 42.35603 | -70.99351 | 27 ft | 23 kts | 315° |
| 2026-05-07 19:09 | 42.35891 | -70.99741 | 31 ft | 90 kts | 315° |
| 2026-05-07 19:09 | 42.36477 | -71.00529 | 30 ft | 145 kts | 314° |
| 2026-05-07 19:09 | 42.37264 | -71.01548 | 389 ft | 158 kts | 313° |
| 2026-05-07 19:09 | 42.38044 | -71.02587 | 1074 ft | 159 kts | 313° |
| 2026-05-07 19:10 | 42.38722 | -71.03823 | 1474 ft | 175 kts | 300° |
| 2026-05-07 19:10 | 42.39373 | -71.05376 | 1615 ft | 203 kts | 299° |
| 2026-05-07 19:10 | 42.40115 | -71.07164 | 1858 ft | 232 kts | 299° |
| 2026-05-07 19:10 | 42.40819 | -71.09201 | 2396 ft | 244 kts | 283° |
| 2026-05-07 19:11 | 42.40704 | -71.11482 | 3033 ft | 251 kts | 251° |
| 2026-05-07 19:11 | 42.39867 | -71.13565 | 3749 ft | 254 kts | 238° |
| 2026-05-07 19:11 | 42.38796 | -71.15488 | 4446 ft | 257 kts | 234° |
| 2026-05-07 19:11 | 42.37662 | -71.17377 | 5102 ft | 260 kts | 234° |
| 2026-05-07 19:12 | 42.36399 | -71.19127 | 5741 ft | 261 kts | 215° |
| 2026-05-07 19:12 | 42.34674 | -71.19961 | 6507 ft | 265 kts | 187° |
| 2026-05-07 19:12 | 42.32870 | -71.19617 | 7254 ft | 268 kts | 165° |
| 2026-05-07 19:12 | 42.31133 | -71.18759 | 8017 ft | 263 kts | 166° |
| 2026-05-07 19:13 | 42.29421 | -71.17908 | 8683 ft | 262 kts | 168° |
| 2026-05-07 19:13 | 42.27659 | -71.17048 | 8970 ft | 279 kts | 168° |
| 2026-05-07 19:13 | 42.25793 | -71.15993 | 9238 ft | 302 kts | 158° |
| 2026-05-07 19:13 | 42.24048 | -71.14301 | 9696 ft | 317 kts | 146° |
| 2026-05-07 19:14 | 42.22379 | -71.12325 | 10204 ft | 321 kts | 147° |
| 2026-05-07 19:14 | 42.20645 | -71.10297 | 10344 ft | 340 kts | 147° |
| 2026-05-07 19:14 | 42.18801 | -71.08163 | 10483 ft | 359 kts | 147° |
| 2026-05-07 19:14 | 42.16858 | -71.05923 | 10623 ft | 376 kts | 147° |
| 2026-05-07 19:15 | 42.14802 | -71.03638 | 10757 ft | 388 kts | 151° |
| 2026-05-07 19:15 | 42.12555 | -71.01513 | 10959 ft | 400 kts | 153° |
| 2026-05-07 19:15 | 42.10265 | -70.99363 | 11421 ft | 404 kts | 153° |
| 2026-05-07 19:15 | 42.07945 | -70.97185 | 11962 ft | 407 kts | 153° |
| 2026-05-07 19:16 | 42.05623 | -70.95010 | 12541 ft | 408 kts | 154° |
| 2026-05-07 19:16 | 42.03284 | -70.92822 | 13137 ft | 410 kts | 154° |
| 2026-05-07 19:16 | 42.00939 | -70.90635 | 13693 ft | 411 kts | 155° |
| 2026-05-07 19:16 | 41.98606 | -70.88466 | 14191 ft | 413 kts | 155° |
| 2026-05-07 19:17 | 41.96236 | -70.86265 | 14681 ft | 415 kts | 155° |
| 2026-05-07 19:17 | 41.93856 | -70.84056 | 15202 ft | 417 kts | 155° |
| 2026-05-07 19:17 | 41.91466 | -70.81839 | 15682 ft | 419 kts | 155° |
| 2026-05-07 19:17 | 41.88980 | -70.79869 | 16159 ft | 410 kts | 165° |
| 2026-05-07 19:18 | 41.86339 | -70.78608 | 16634 ft | 398 kts | 176° |
| 2026-05-07 19:18 | 41.83644 | -70.78072 | 17092 ft | 387 kts | 187° |
| 2026-05-07 19:18 | 41.80985 | -70.78222 | 17541 ft | 378 kts | 196° |
| 2026-05-07 19:18 | 41.78448 | -70.78995 | 17938 ft | 371 kts | 206° |
| 2026-05-07 19:19 | 41.76100 | -70.80328 | 18377 ft | 364 kts | 215° |
| 2026-05-07 19:19 | 41.73900 | -70.81996 | 18814 ft | 362 kts | 216° |
| 2026-05-07 19:19 | 41.71712 | -70.83648 | 19272 ft | 362 kts | 216° |
| 2026-05-07 19:19 | 41.69520 | -70.85291 | 19727 ft | 361 kts | 216° |
| 2026-05-07 19:20 | 41.67325 | -70.86926 | 20173 ft | 361 kts | 216° |
| 2026-05-07 19:20 | 41.65133 | -70.88553 | 20683 ft | 360 kts | 216° |
| 2026-05-07 19:20 | 41.62939 | -70.90185 | 21066 ft | 361 kts | 216° |
| 2026-05-07 19:20 | 41.60753 | -70.91814 | 21461 ft | 361 kts | 217° |
| 2026-05-07 19:21 | 41.58564 | -70.93446 | 21893 ft | 360 kts | 217° |
| 2026-05-07 19:21 | 41.56409 | -70.95123 | 22317 ft | 356 kts | 221° |
| 2026-05-07 19:21 | 41.54516 | -70.97199 | 22727 ft | 349 kts | 230° |
| 2026-05-07 19:21 | 41.52981 | -70.99662 | 23125 ft | 345 kts | 238° |
| 2026-05-07 19:22 | 41.51659 | -71.02332 | 23495 ft | 344 kts | 238° |
| 2026-05-07 19:22 | 41.50331 | -71.04994 | 23795 ft | 345 kts | 238° |
| 2026-05-07 19:22 | 41.48995 | -71.07652 | 24082 ft | 345 kts | 238° |
| 2026-05-07 19:22 | 41.47655 | -71.10314 | 24387 ft | 346 kts | 238° |
| 2026-05-07 19:23 | 41.46312 | -71.12984 | 24670 ft | 347 kts | 238° |
| 2026-05-07 19:23 | 41.44965 | -71.15660 | 24930 ft | 348 kts | 238° |
| 2026-05-07 19:23 | 41.43614 | -71.18344 | 25157 ft | 350 kts | 238° |
| 2026-05-07 19:23 | 41.42258 | -71.21039 | 25411 ft | 351 kts | 238° |
| 2026-05-07 19:24 | 41.40900 | -71.23740 | 25737 ft | 350 kts | 238° |
| 2026-05-07 19:24 | 41.39548 | -71.26427 | 26136 ft | 348 kts | 238° |
| 2026-05-07 19:24 | 41.38206 | -71.29093 | 26539 ft | 346 kts | 238° |
| 2026-05-07 19:24 | 41.36888 | -71.31706 | 26922 ft | 344 kts | 238° |
| 2026-05-07 19:25 | 41.35560 | -71.34340 | 27324 ft | 342 kts | 238° |
| 2026-05-07 19:25 | 41.34223 | -71.36989 | 27714 ft | 339 kts | 238° |
| 2026-05-07 19:25 | 41.32926 | -71.39553 | 28108 ft | 337 kts | 238° |
| 2026-05-07 19:25 | 41.31620 | -71.42132 | 28498 ft | 335 kts | 238° |
| 2026-05-07 19:26 | 41.30319 | -71.44702 | 28875 ft | 334 kts | 238° |
| 2026-05-07 19:26 | 41.29025 | -71.47255 | 29252 ft | 332 kts | 238° |
| 2026-05-07 19:26 | 41.27742 | -71.49793 | 29630 ft | 330 kts | 238° |
| 2026-05-07 19:26 | 41.26467 | -71.52315 | 29981 ft | 328 kts | 238° |
| 2026-05-07 19:27 | 41.25193 | -71.54830 | 30283 ft | 327 kts | 238° |
| 2026-05-07 19:27 | 41.23925 | -71.57326 | 30628 ft | 325 kts | 238° |
| 2026-05-07 19:27 | 41.22664 | -71.59809 | 30929 ft | 324 kts | 238° |
| 2026-05-07 19:27 | 41.21407 | -71.62284 | 31209 ft | 322 kts | 238° |
| 2026-05-07 19:28 | 41.20155 | -71.64741 | 31484 ft | 321 kts | 238° |
| 2026-05-07 19:28 | 41.18900 | -71.67194 | 31728 ft | 321 kts | 238° |
| 2026-05-07 19:28 | 41.16384 | -71.72111 | 31844 ft | 323 kts | 238° |
| 2026-05-07 19:29 | 41.13866 | -71.77034 | 31821 ft | 323 kts | 238° |
| 2026-05-07 19:29 | 41.11347 | -71.81995 | 31859 ft | 324 kts | 238° |
| 2026-05-07 19:30 | 41.08827 | -71.86959 | 31860 ft | 324 kts | 238° |
| 2026-05-07 19:30 | 41.06304 | -71.91911 | 31901 ft | 324 kts | 238° |
| 2026-05-07 19:31 | 41.04200 | -71.96034 | 31894 ft | 325 kts | 238° |
| 2026-05-07 19:31 | 41.02118 | -72.01306 | 31886 ft | 323 kts | 245° |
| 2026-05-07 19:32 | 41.00220 | -72.06703 | 31884 ft | 324 kts | 245° |
| 2026-05-07 19:32 | 40.98309 | -72.12105 | 31835 ft | 324 kts | 245° |
| 2026-05-07 19:33 | 40.96404 | -72.17497 | 31843 ft | 324 kts | 245° |
| 2026-05-07 19:33 | 40.94489 | -72.22903 | 31828 ft | 324 kts | 245° |
| 2026-05-07 19:34 | 40.92575 | -72.28298 | 31881 ft | 324 kts | 244° |
| 2026-05-07 19:34 | 40.90031 | -72.33207 | 31870 ft | 329 kts | 230° |
| 2026-05-07 19:35 | 40.86777 | -72.37455 | 31868 ft | 329 kts | 230° |
| 2026-05-07 19:35 | 40.83516 | -72.41709 | 31806 ft | 329 kts | 230° |
| 2026-05-07 19:36 | 40.80241 | -72.45973 | 31854 ft | 333 kts | 229° |
| 2026-05-07 19:36 | 40.76659 | -72.49904 | 31866 ft | 335 kts | 226° |
| 2026-05-07 19:37 | 40.73055 | -72.53803 | 31874 ft | 335 kts | 226° |
| 2026-05-07 19:37 | 40.69461 | -72.57717 | 31879 ft | 333 kts | 229° |
| 2026-05-07 19:38 | 40.66461 | -72.62270 | 31894 ft | 327 kts | 234° |
| 2026-05-07 19:38 | 40.63572 | -72.66899 | 31849 ft | 329 kts | 234° |
| 2026-05-07 19:39 | 40.60664 | -72.71540 | 31860 ft | 329 kts | 234° |
| 2026-05-07 19:39 | 40.57750 | -72.76175 | 31868 ft | 329 kts | 234° |
| 2026-05-07 19:40 | 40.54849 | -72.80789 | 31874 ft | 329 kts | 234° |
| 2026-05-07 19:40 | 40.51916 | -72.85450 | 31877 ft | 329 kts | 234° |
| 2026-05-07 19:41 | 40.48997 | -72.90094 | 31826 ft | 329 kts | 234° |
| 2026-05-07 19:41 | 40.46068 | -72.94739 | 31858 ft | 331 kts | 234° |
| 2026-05-07 19:42 | 40.43125 | -72.99394 | 31909 ft | 331 kts | 234° |
| 2026-05-07 19:42 | 40.40197 | -73.04015 | 31908 ft | 331 kts | 234° |
| 2026-05-07 19:43 | 40.37258 | -73.08657 | 31905 ft | 331 kts | 234° |
| 2026-05-07 19:43 | 40.34312 | -73.13303 | 31906 ft | 331 kts | 234° |
| 2026-05-07 19:44 | 40.31370 | -73.17936 | 31833 ft | 331 kts | 234° |
| 2026-05-07 19:44 | 40.28414 | -73.22578 | 31862 ft | 332 kts | 234° |
| 2026-05-07 19:45 | 40.25448 | -73.27223 | 31882 ft | 332 kts | 234° |
| 2026-05-07 19:45 | 40.22483 | -73.31865 | 31903 ft | 331 kts | 234° |
| 2026-05-07 19:46 | 40.19538 | -73.36479 | 31895 ft | 330 kts | 234° |
| 2026-05-07 19:46 | 40.16591 | -73.41088 | 31895 ft | 331 kts | 234° |
| 2026-05-07 19:47 | 40.13631 | -73.45697 | 31862 ft | 332 kts | 234° |
| 2026-05-07 19:47 | 40.10646 | -73.50334 | 31877 ft | 334 kts | 234° |
| 2026-05-07 19:48 | 40.07653 | -73.54985 | 31885 ft | 334 kts | 234° |
| 2026-05-07 19:48 | 40.04663 | -73.59625 | 31891 ft | 334 kts | 234° |
| 2026-05-07 19:49 | 40.01674 | -73.64251 | 31893 ft | 333 kts | 234° |
| 2026-05-07 19:49 | 39.98698 | -73.68865 | 31891 ft | 330 kts | 234° |
| 2026-05-07 19:50 | 39.95276 | -73.72933 | 31856 ft | 346 kts | 219° |
| 2026-05-07 19:50 | 39.93047 | -73.74270 | 31878 ft | 357 kts | 213° |
| 2026-05-07 19:50 | 39.90740 | -73.75486 | 31879 ft | 357 kts | 213° |
| 2026-05-07 19:51 | 39.86142 | -73.77931 | 31885 ft | 357 kts | 213° |
| 2026-05-07 19:51 | 39.81544 | -73.80384 | 31886 ft | 357 kts | 213° |
| 2026-05-07 19:52 | 39.76974 | -73.82822 | 31866 ft | 358 kts | 213° |
| 2026-05-07 19:52 | 39.72361 | -73.85277 | 31865 ft | 360 kts | 213° |
| 2026-05-07 19:53 | 39.67721 | -73.87734 | 31879 ft | 360 kts | 213° |
| 2026-05-07 19:53 | 39.63076 | -73.90186 | 31888 ft | 360 kts | 213° |
| 2026-05-07 19:54 | 39.58435 | -73.92642 | 31898 ft | 360 kts | 213° |
| 2026-05-07 19:54 | 39.53803 | -73.95099 | 31901 ft | 360 kts | 213° |
| 2026-05-07 19:55 | 39.49169 | -73.97543 | 31896 ft | 360 kts | 213° |
| 2026-05-07 19:55 | 39.44530 | -73.99978 | 31912 ft | 360 kts | 213° |
| 2026-05-07 19:56 | 39.40187 | -74.02884 | 31915 ft | 342 kts | 225° |
| 2026-05-07 19:56 | 39.36602 | -74.06801 | 31855 ft | 339 kts | 227° |
| 2026-05-07 19:57 | 39.32969 | -74.10770 | 31868 ft | 341 kts | 227° |
| 2026-05-07 19:57 | 39.29362 | -74.14693 | 31878 ft | 342 kts | 227° |
| 2026-05-07 19:58 | 39.25725 | -74.18645 | 31881 ft | 342 kts | 227° |
| 2026-05-07 19:58 | 39.22082 | -74.22608 | 31887 ft | 342 kts | 227° |
| 2026-05-07 19:59 | 39.18441 | -74.26569 | 31893 ft | 343 kts | 227° |
| 2026-05-07 19:59 | 39.14790 | -74.30534 | 31871 ft | 345 kts | 227° |
| 2026-05-07 20:00 | 39.11116 | -74.34520 | 31900 ft | 346 kts | 227° |
| 2026-05-07 20:00 | 39.07437 | -74.38487 | 31922 ft | 344 kts | 227° |
| 2026-05-07 20:01 | 39.03771 | -74.42437 | 31926 ft | 343 kts | 227° |
| 2026-05-07 20:01 | 39.00110 | -74.46384 | 31924 ft | 344 kts | 227° |
| 2026-05-07 20:02 | 38.96448 | -74.50330 | 31887 ft | 344 kts | 227° |
| 2026-05-07 20:02 | 38.92792 | -74.54302 | 31890 ft | 344 kts | 229° |
| 2026-05-07 20:03 | 38.89256 | -74.58426 | 31898 ft | 343 kts | 230° |
| 2026-05-07 20:03 | 38.85762 | -74.62592 | 31906 ft | 343 kts | 230° |
| 2026-05-07 20:04 | 38.82255 | -74.66736 | 31917 ft | 343 kts | 229° |
| 2026-05-07 20:04 | 38.78718 | -74.70866 | 31841 ft | 344 kts | 229° |
| 2026-05-07 20:05 | 38.75156 | -74.75006 | 31901 ft | 347 kts | 229° |
| 2026-05-07 20:05 | 38.71458 | -74.79023 | 31916 ft | 350 kts | 227° |
| 2026-05-07 20:06 | 38.67652 | -74.82916 | 31924 ft | 350 kts | 226° |
| 2026-05-07 20:06 | 38.63856 | -74.86798 | 31928 ft | 349 kts | 227° |
| 2026-05-07 20:07 | 38.60104 | -74.90680 | 31928 ft | 349 kts | 227° |
| 2026-05-07 20:07 | 38.56342 | -74.94595 | 31884 ft | 350 kts | 227° |
| 2026-05-07 20:08 | 38.52560 | -74.98527 | 31892 ft | 350 kts | 227° |
| 2026-05-07 20:08 | 38.48872 | -75.02568 | 31885 ft | 349 kts | 229° |
| 2026-05-07 20:09 | 38.45182 | -75.06635 | 31931 ft | 352 kts | 227° |
| 2026-05-07 20:10 | 38.39287 | -75.12255 | 31845 ft | 353 kts | 225° |
| 2026-05-07 20:10 | 38.35292 | -75.15965 | 31880 ft | 356 kts | 225° |
| 2026-05-07 20:11 | 38.31315 | -75.19710 | 31879 ft | 356 kts | 225° |
| 2026-05-07 20:11 | 38.27342 | -75.23473 | 31884 ft | 356 kts | 225° |
| 2026-05-07 20:12 | 38.23371 | -75.27224 | 31893 ft | 356 kts | 225° |
| 2026-05-07 20:12 | 38.19400 | -75.30976 | 31897 ft | 356 kts | 225° |
| 2026-05-07 20:13 | 38.15411 | -75.34746 | 31884 ft | 358 kts | 225° |
| 2026-05-07 20:13 | 38.11398 | -75.38528 | 31895 ft | 359 kts | 225° |
| 2026-05-07 20:14 | 38.07396 | -75.42297 | 31906 ft | 359 kts | 225° |
| 2026-05-07 20:14 | 38.03366 | -75.46029 | 31953 ft | 359 kts | 224° |
| 2026-05-07 20:15 | 37.99247 | -75.49617 | 31946 ft | 359 kts | 224° |
| 2026-05-07 20:15 | 37.95105 | -75.53176 | 31884 ft | 361 kts | 224° |
| 2026-05-07 20:16 | 37.90947 | -75.56778 | 31896 ft | 362 kts | 224° |
| 2026-05-07 20:16 | 37.86797 | -75.60387 | 31901 ft | 362 kts | 224° |
| 2026-05-07 20:17 | 37.82228 | -75.63368 | 31905 ft | 385 kts | 209° |
| 2026-05-07 20:17 | 37.77042 | -75.65189 | 31866 ft | 388 kts | 208° |
| 2026-05-07 20:18 | 37.71832 | -75.67011 | 31884 ft | 389 kts | 208° |
| 2026-05-07 20:18 | 37.67464 | -75.68541 | 31893 ft | 389 kts | 208° |
| 2026-05-07 20:19 | 37.62250 | -75.70368 | 31903 ft | 389 kts | 208° |
| 2026-05-07 20:19 | 37.57068 | -75.72182 | 31907 ft | 389 kts | 208° |
| 2026-05-07 20:20 | 37.51854 | -75.74012 | 31915 ft | 389 kts | 208° |
| 2026-05-07 20:20 | 37.46639 | -75.75840 | 31917 ft | 389 kts | 208° |
| 2026-05-07 20:21 | 37.41416 | -75.77653 | 31916 ft | 390 kts | 208° |
| 2026-05-07 20:21 | 37.36188 | -75.79463 | 31929 ft | 389 kts | 209° |
| 2026-05-07 20:22 | 37.30977 | -75.81287 | 31868 ft | 390 kts | 208° |
| 2026-05-07 20:22 | 37.25734 | -75.83121 | 31884 ft | 392 kts | 208° |
| 2026-05-07 20:23 | 37.20475 | -75.84946 | 31896 ft | 392 kts | 208° |
| 2026-05-07 20:23 | 37.15214 | -75.86759 | 31902 ft | 392 kts | 208° |
| 2026-05-07 20:24 | 37.09966 | -75.88596 | 31858 ft | 388 kts | 211° |
| 2026-05-07 20:24 | 37.07515 | -75.89890 | 31862 ft | 375 kts | 219° |
| 2026-05-07 20:24 | 37.05248 | -75.91471 | 31865 ft | 374 kts | 220° |
| 2026-05-07 20:25 | 37.00704 | -75.94649 | 31867 ft | 375 kts | 220° |
| 2026-05-07 20:25 | 36.96140 | -75.97819 | 31871 ft | 376 kts | 219° |
| 2026-05-07 20:26 | 36.91561 | -76.00990 | 31876 ft | 376 kts | 219° |
| 2026-05-07 20:26 | 36.86980 | -76.04157 | 31863 ft | 378 kts | 219° |
| 2026-05-07 20:27 | 36.82339 | -76.07376 | 31878 ft | 383 kts | 219° |
| 2026-05-07 20:27 | 36.77668 | -76.10590 | 31882 ft | 384 kts | 219° |
| 2026-05-07 20:28 | 36.72992 | -76.13810 | 31905 ft | 384 kts | 219° |
| 2026-05-07 20:28 | 36.68319 | -76.17031 | 31935 ft | 383 kts | 220° |
| 2026-05-07 20:29 | 36.63657 | -76.20236 | 31884 ft | 383 kts | 220° |
| 2026-05-07 20:29 | 36.59021 | -76.23423 | 31906 ft | 384 kts | 219° |
| 2026-05-07 20:30 | 36.54345 | -76.26630 | 31900 ft | 384 kts | 220° |
| 2026-05-07 20:30 | 36.49660 | -76.29840 | 31902 ft | 385 kts | 219° |
| 2026-05-07 20:31 | 36.44966 | -76.33044 | 31901 ft | 385 kts | 219° |
| 2026-05-07 20:31 | 36.40265 | -76.36258 | 31869 ft | 387 kts | 220° |
| 2026-05-07 20:32 | 36.35512 | -76.39507 | 31876 ft | 387 kts | 220° |
| 2026-05-07 20:32 | 36.30793 | -76.42718 | 31886 ft | 387 kts | 220° |
| 2026-05-07 20:33 | 36.26060 | -76.45932 | 31893 ft | 387 kts | 220° |
| 2026-05-07 20:33 | 36.21368 | -76.49119 | 31864 ft | 387 kts | 220° |
| 2026-05-07 20:34 | 36.16611 | -76.52345 | 31907 ft | 387 kts | 220° |
| 2026-05-07 20:34 | 36.11918 | -76.55518 | 31903 ft | 387 kts | 220° |
| 2026-05-07 20:35 | 36.07185 | -76.58708 | 31900 ft | 387 kts | 220° |
| 2026-05-07 20:35 | 36.02451 | -76.61901 | 31913 ft | 387 kts | 220° |
| 2026-05-07 20:36 | 35.97731 | -76.65094 | 31869 ft | 388 kts | 220° |
| 2026-05-07 20:36 | 35.92988 | -76.68298 | 31870 ft | 389 kts | 220° |
| 2026-05-07 20:37 | 35.88214 | -76.71446 | 31882 ft | 391 kts | 218° |
| 2026-05-07 20:37 | 35.83323 | -76.74430 | 31883 ft | 393 kts | 217° |
| 2026-05-07 20:38 | 35.78404 | -76.77368 | 31884 ft | 393 kts | 218° |
| 2026-05-07 20:38 | 35.73498 | -76.80332 | 31858 ft | 393 kts | 218° |
| 2026-05-07 20:39 | 35.68607 | -76.83316 | 31864 ft | 393 kts | 218° |
| 2026-05-07 20:39 | 35.63710 | -76.86304 | 31868 ft | 393 kts | 218° |
| 2026-05-07 20:40 | 35.58809 | -76.89282 | 31851 ft | 393 kts | 218° |
| 2026-05-07 20:40 | 35.53916 | -76.92261 | 31846 ft | 393 kts | 218° |
| 2026-05-07 20:41 | 35.49022 | -76.95261 | 31802 ft | 393 kts | 218° |
| 2026-05-07 20:41 | 35.44127 | -76.98267 | 31818 ft | 394 kts | 218° |
| 2026-05-07 20:42 | 35.39186 | -77.01303 | 31850 ft | 401 kts | 218° |
| 2026-05-07 20:42 | 35.34132 | -77.04404 | 31856 ft | 411 kts | 217° |
| 2026-05-07 20:43 | 35.28975 | -77.07547 | 31867 ft | 415 kts | 217° |
| 2026-05-07 20:43 | 35.23796 | -77.10685 | 31875 ft | 416 kts | 217° |
| 2026-05-07 20:44 | 35.18611 | -77.13828 | 31881 ft | 416 kts | 217° |
| 2026-05-07 20:44 | 35.13431 | -77.16975 | 31856 ft | 416 kts | 217° |
| 2026-05-07 20:45 | 35.08238 | -77.20134 | 31866 ft | 417 kts | 217° |
| 2026-05-07 20:45 | 35.03028 | -77.23289 | 31859 ft | 418 kts | 217° |
| 2026-05-07 20:46 | 34.97810 | -77.26436 | 31878 ft | 419 kts | 217° |
| 2026-05-07 20:46 | 34.92594 | -77.29586 | 31892 ft | 418 kts | 217° |
| 2026-05-07 20:47 | 34.87379 | -77.32734 | 31885 ft | 418 kts | 217° |
| 2026-05-07 20:47 | 34.82164 | -77.35879 | 31813 ft | 418 kts | 217° |
| 2026-05-07 20:48 | 34.76933 | -77.39021 | 31829 ft | 420 kts | 217° |
| 2026-05-07 20:48 | 34.71678 | -77.42180 | 31836 ft | 422 kts | 217° |
| 2026-05-07 20:49 | 34.66413 | -77.45340 | 31846 ft | 423 kts | 217° |
| 2026-05-07 20:49 | 34.61133 | -77.48495 | 31857 ft | 423 kts | 217° |
| 2026-05-07 20:50 | 34.55829 | -77.51659 | 31837 ft | 425 kts | 216° |
| 2026-05-07 20:50 | 34.50281 | -77.54388 | 31848 ft | 445 kts | 204° |
| 2026-05-07 20:51 | 34.44116 | -77.55770 | 31875 ft | 451 kts | 201° |
| 2026-05-07 20:51 | 34.37930 | -77.57125 | 31887 ft | 452 kts | 201° |
| 2026-05-07 20:52 | 34.31732 | -77.58490 | 31846 ft | 454 kts | 200° |
| 2026-05-07 20:52 | 34.25491 | -77.59877 | 31872 ft | 457 kts | 201° |
| 2026-05-07 20:53 | 34.19256 | -77.61245 | 31890 ft | 458 kts | 200° |
| 2026-05-07 20:53 | 34.12952 | -77.62630 | 31893 ft | 458 kts | 201° |
| 2026-05-07 20:54 | 34.06720 | -77.63993 | 31861 ft | 459 kts | 200° |
| 2026-05-07 20:54 | 34.00425 | -77.65366 | 31863 ft | 460 kts | 200° |
| 2026-05-07 20:55 | 33.94121 | -77.66748 | 31878 ft | 461 kts | 200° |
| 2026-05-07 20:55 | 33.87797 | -77.68133 | 31887 ft | 462 kts | 200° |
| 2026-05-07 20:56 | 33.81460 | -77.69516 | 31869 ft | 463 kts | 199° |
| 2026-05-07 20:56 | 33.75121 | -77.70893 | 31886 ft | 464 kts | 199° |
| 2026-05-07 20:57 | 33.68770 | -77.72285 | 31894 ft | 462 kts | 201° |
| 2026-05-07 20:57 | 33.62620 | -77.74256 | 31900 ft | 457 kts | 204° |
| 2026-05-07 20:58 | 33.56474 | -77.76265 | 31871 ft | 457 kts | 203° |
| 2026-05-07 20:58 | 33.50334 | -77.78273 | 31885 ft | 458 kts | 203° |
| 2026-05-07 20:59 | 33.44181 | -77.80274 | 31895 ft | 458 kts | 203° |
| 2026-05-07 20:59 | 33.38030 | -77.82272 | 31906 ft | 458 kts | 203° |
| 2026-05-07 21:00 | 33.31887 | -77.84275 | 31881 ft | 458 kts | 203° |
| 2026-05-07 21:00 | 33.25734 | -77.86276 | 31896 ft | 458 kts | 202° |
| 2026-05-07 21:01 | 33.19567 | -77.88275 | 31906 ft | 459 kts | 202° |
| 2026-05-07 21:01 | 33.13406 | -77.90266 | 31915 ft | 459 kts | 202° |
| 2026-05-07 21:02 | 33.07246 | -77.92256 | 31883 ft | 459 kts | 202° |
| 2026-05-07 21:02 | 33.02107 | -77.93927 | 31882 ft | 460 kts | 202° |
| 2026-05-07 21:03 | 32.95960 | -77.96031 | 31901 ft | 461 kts | 203° |
| 2026-05-07 21:03 | 32.89806 | -77.98168 | 31914 ft | 461 kts | 203° |
| 2026-05-07 21:04 | 32.83640 | -78.00283 | 31922 ft | 461 kts | 203° |
| 2026-05-07 21:04 | 32.77491 | -78.02375 | 31934 ft | 460 kts | 203° |
| 2026-05-07 21:05 | 32.71325 | -78.04467 | 31934 ft | 460 kts | 203° |
| 2026-05-07 21:05 | 32.65163 | -78.06565 | 31941 ft | 460 kts | 203° |
| 2026-05-07 21:06 | 32.59009 | -78.08657 | 31940 ft | 460 kts | 203° |
| 2026-05-07 21:06 | 32.52847 | -78.10749 | 31905 ft | 462 kts | 202° |
| 2026-05-07 21:07 | 32.46658 | -78.12836 | 31916 ft | 463 kts | 202° |
| 2026-05-07 21:07 | 32.40452 | -78.14931 | 31926 ft | 464 kts | 202° |
| 2026-05-07 21:08 | 32.34230 | -78.17033 | 31944 ft | 465 kts | 202° |
| 2026-05-07 21:08 | 32.27998 | -78.19135 | 31924 ft | 467 kts | 202° |
| 2026-05-07 21:09 | 32.21749 | -78.21245 | 31939 ft | 468 kts | 202° |
| 2026-05-07 21:09 | 32.15479 | -78.23356 | 31946 ft | 468 kts | 202° |
| 2026-05-07 21:10 | 32.09213 | -78.25458 | 31949 ft | 469 kts | 202° |
| 2026-05-07 21:10 | 32.02925 | -78.27565 | 31925 ft | 470 kts | 202° |
| 2026-05-07 21:11 | 31.96634 | -78.29666 | 31938 ft | 471 kts | 202° |
| 2026-05-07 21:11 | 31.87170 | -78.32820 | 31952 ft | 472 kts | 202° |
| 2026-05-07 21:12 | 31.80851 | -78.34930 | 31947 ft | 472 kts | 202° |
| 2026-05-07 21:12 | 31.74523 | -78.37041 | 31957 ft | 473 kts | 202° |
| 2026-05-07 21:13 | 31.68194 | -78.39154 | 31972 ft | 473 kts | 202° |
| 2026-05-07 21:13 | 31.61857 | -78.41257 | 31972 ft | 474 kts | 202° |
| 2026-05-07 21:14 | 31.55507 | -78.43351 | 31975 ft | 474 kts | 202° |
| 2026-05-07 21:14 | 31.49171 | -78.45441 | 31970 ft | 474 kts | 202° |
| 2026-05-07 21:15 | 31.42794 | -78.47510 | 31978 ft | 475 kts | 201° |
| 2026-05-07 21:15 | 31.36427 | -78.49565 | 31983 ft | 475 kts | 201° |
| 2026-05-07 21:16 | 31.30060 | -78.51628 | 31988 ft | 475 kts | 201° |
| 2026-05-07 21:16 | 31.23690 | -78.53694 | 31976 ft | 475 kts | 202° |
| 2026-05-07 21:17 | 31.17314 | -78.55760 | 31982 ft | 476 kts | 202° |
| 2026-05-07 21:17 | 31.10932 | -78.57818 | 31991 ft | 476 kts | 202° |
| 2026-05-07 21:18 | 31.04552 | -78.59868 | 31996 ft | 476 kts | 202° |
| 2026-05-07 21:18 | 30.98170 | -78.61922 | 31978 ft | 475 kts | 202° |
| 2026-05-07 21:19 | 30.91800 | -78.63968 | 31996 ft | 475 kts | 202° |
| 2026-05-07 21:19 | 30.85430 | -78.66011 | 32000 ft | 475 kts | 202° |
| 2026-05-07 21:20 | 30.79060 | -78.68052 | 32004 ft | 475 kts | 202° |
| 2026-05-07 21:20 | 30.72691 | -78.70086 | 31971 ft | 474 kts | 203° |
| 2026-05-07 21:21 | 30.66321 | -78.72118 | 31989 ft | 474 kts | 204° |
| 2026-05-07 21:21 | 30.59959 | -78.74151 | 31998 ft | 474 kts | 203° |
| 2026-05-07 21:22 | 30.53592 | -78.76168 | 32008 ft | 474 kts | 203° |
| 2026-05-07 21:22 | 30.47221 | -78.78198 | 32000 ft | 474 kts | 203° |
| 2026-05-07 21:23 | 30.40867 | -78.80223 | 32001 ft | 474 kts | 203° |
| 2026-05-07 21:23 | 30.34496 | -78.82242 | 32005 ft | 475 kts | 203° |
| 2026-05-07 21:24 | 30.28129 | -78.84262 | 32008 ft | 474 kts | 203° |
| 2026-05-07 21:24 | 30.21755 | -78.86276 | 32014 ft | 474 kts | 203° |
| 2026-05-07 21:25 | 30.15387 | -78.88287 | 32012 ft | 474 kts | 203° |
| 2026-05-07 21:25 | 30.09069 | -78.90284 | 32014 ft | 474 kts | 203° |
| 2026-05-07 21:26 | 30.02671 | -78.92297 | 32014 ft | 474 kts | 203° |
| 2026-05-07 21:26 | 29.96213 | -78.94326 | 32013 ft | 474 kts | 203° |
| 2026-05-07 21:27 | 29.89875 | -78.96320 | 31994 ft | 474 kts | 202° |
| 2026-05-07 21:27 | 29.83506 | -78.98314 | 32007 ft | 474 kts | 202° |
| 2026-05-07 21:28 | 29.76999 | -78.99880 | 32013 ft | 481 kts | 197° |
| 2026-05-07 21:28 | 29.70394 | -79.01094 | 32016 ft | 481 kts | 197° |
| 2026-05-07 21:29 | 29.63781 | -79.02321 | 31993 ft | 481 kts | 196° |
| 2026-05-07 21:29 | 29.57167 | -79.03550 | 32004 ft | 482 kts | 196° |
| 2026-05-07 21:30 | 29.50542 | -79.04770 | 32015 ft | 482 kts | 196° |
| 2026-05-07 21:30 | 29.43911 | -79.05986 | 32017 ft | 483 kts | 197° |
| 2026-05-07 21:31 | 29.37278 | -79.07206 | 32012 ft | 482 kts | 196° |
| 2026-05-07 21:31 | 29.30651 | -79.08431 | 32015 ft | 483 kts | 196° |
| 2026-05-07 21:32 | 29.24057 | -79.09643 | 32018 ft | 483 kts | 196° |
| 2026-05-07 21:32 | 29.17415 | -79.10852 | 32019 ft | 484 kts | 196° |
| 2026-05-07 21:33 | 29.10767 | -79.12061 | 32026 ft | 484 kts | 196° |